Time;durP1;ratioP1;P1;durP2;ratioP2;P2;SDS_P1;SDS_P2;PMS_P1;PMS_P2;Temp;Humidity;BMP_temperature;BMP_pressure;BME280_temperature;BME280_humidity;BME280_pressure;Samples;Min_cycle;Max_cycle;Signal;HPM_P1;HPM_P2
2023/09/06 00:00:45;;;;;;;5.27;1.53;;;18.70;46.70;;;;;;5071843;28;20190;-68
2023/09/06 00:03:14;;;;;;;8.53;1.97;;;19.00;46.80;;;;;;5071957;28;20230;-65
2023/09/06 00:05:44;;;;;;;8.33;1.70;;;19.20;46.50;;;;;;5065578;28;20571;-67
2023/09/06 00:08:16;;;;;;;7.13;1.63;;;19.10;47.00;;;;;;5072276;28;20183;-68
2023/09/06 00:10:44;;;;;;;6.77;1.80;;;19.20;46.90;;;;;;5072980;28;20187;-69
2023/09/06 00:13:13;;;;;;;5.97;1.80;;;19.20;46.80;;;;;;5070051;28;20179;-66
2023/09/06 00:15:40;;;;;;;5.47;1.70;;;19.20;46.80;;;;;;5070072;28;20543;-68
2023/09/06 00:18:08;;;;;;;8.27;1.87;;;19.40;46.50;;;;;;5073238;28;20206;-68
2023/09/06 00:20:38;;;;;;;6.07;1.47;;;19.70;45.90;;;;;;5068101;28;20707;-73
2023/09/06 00:23:08;;;;;;;6.37;1.70;;;19.70;45.70;;;;;;5067776;28;20599;-68
2023/09/06 00:25:37;;;;;;;3.70;1.60;;;19.60;45.50;;;;;;5069846;28;20265;-71
2023/09/06 00:28:06;;;;;;;6.63;1.70;;;19.60;44.50;;;;;;5068363;28;20187;-67
2023/09/06 00:30:35;;;;;;;7.17;2.03;;;19.60;45.20;;;;;;5074756;28;20654;-66
2023/09/06 00:33:08;;;;;;;7.53;1.63;;;19.60;44.50;;;;;;5068093;28;20555;-65
2023/09/06 00:35:37;;;;;;;11.50;2.13;;;19.80;44.40;;;;;;5072403;28;20580;-67
2023/09/06 00:38:05;;;;;;;8.93;1.63;;;19.80;44.30;;;;;;5071928;28;20195;-67
2023/09/06 00:40:36;;;;;;;6.63;1.43;;;19.70;44.90;;;;;;5067325;28;20223;-67
2023/09/06 00:43:05;;;;;;;4.73;1.43;;;19.70;45.10;;;;;;5072196;28;20195;-68
2023/09/06 00:45:39;;;;;;;5.57;1.90;;;19.70;45.10;;;;;;5071887;28;20219;-69
2023/09/06 00:48:08;;;;;;;5.77;1.47;;;19.80;44.00;;;;;;5068911;28;20195;-67
2023/09/06 00:50:35;;;;;;;6.77;1.80;;;20.00;43.60;;;;;;5069473;28;20198;-68
2023/09/06 00:53:06;;;;;;;5.60;1.40;;;19.90;44.70;;;;;;5071488;28;20175;-68
2023/09/06 00:55:37;;;;;;;6.23;1.60;;;20.10;43.90;;;;;;5062783;28;20199;-64
2023/09/06 00:58:09;;;;;;;7.07;1.60;;;20.10;44.50;;;;;;5070509;28;20317;-65
2023/09/06 01:00:36;;;;;;;8.90;2.03;;;20.30;44.30;;;;;;5070556;28;20669;-65
2023/09/06 01:03:03;;;;;;;5.17;1.57;;;20.50;44.30;;;;;;5070832;28;20218;-67
2023/09/06 01:05:41;;;;;;;12.97;1.63;;;20.40;44.00;;;;;;5071102;28;20640;-65
2023/09/06 01:08:13;;;;;;;5.63;1.77;;;20.30;44.80;;;;;;5070187;28;20186;-67
2023/09/06 01:10:40;;;;;;;8.07;1.97;;;20.50;43.90;;;;;;5068718;28;20207;-67
2023/09/06 01:13:08;;;;;;;3.87;1.60;;;20.50;43.70;;;;;;5065867;28;20249;-67
2023/09/06 01:15:36;;;;;;;5.93;1.93;;;20.20;44.00;;;;;;5069373;28;20316;-68
2023/09/06 01:18:06;;;;;;;10.23;4.87;;;20.30;44.80;;;;;;5072185;28;20222;-66
2023/09/06 01:20:42;;;;;;;8.77;4.50;;;20.80;44.00;;;;;;5071321;28;20187;-69
2023/09/06 01:23:40;;;;;;;12.30;2.43;;;21.20;42.80;;;;;;5071681;28;20186;-66
2023/09/06 01:26:08;;;;;;;5.60;1.63;;;20.70;43.60;;;;;;5068360;28;20222;-69
2023/09/06 01:28:36;;;;;;;4.23;1.40;;;20.80;43.60;;;;;;5070745;28;20507;-65
2023/09/06 01:31:03;;;;;;;7.80;1.50;;;21.00;43.30;;;;;;5069785;28;20227;-68
2023/09/06 01:33:31;;;;;;;5.80;1.70;;;21.20;42.40;;;;;;5069814;28;20262;-65
2023/09/06 01:35:59;;;;;;;6.43;1.53;;;21.30;42.60;;;;;;5072048;28;20190;-66
2023/09/06 01:38:26;;;;;;;5.00;1.60;;;21.20;42.80;;;;;;5076712;28;20237;-71
2023/09/06 01:40:54;;;;;;;9.43;1.83;;;21.50;42.50;;;;;;5071028;28;20219;-66
2023/09/06 01:43:21;;;;;;;8.87;1.90;;;21.70;41.40;;;;;;5070860;28;20551;-70
2023/09/06 01:45:50;;;;;;;9.07;1.77;;;21.90;41.80;;;;;;5071454;28;20226;-69
2023/09/06 01:48:19;;;;;;;5.03;1.40;;;22.20;40.80;;;;;;5071063;28;20183;-70
2023/09/06 01:50:47;;;;;;;9.57;1.90;;;22.00;40.40;;;;;;5071490;28;20187;-67
2023/09/06 01:53:15;;;;;;;4.30;1.63;;;22.00;41.30;;;;;;5071514;28;20181;-73
2023/09/06 01:55:43;;;;;;;5.73;1.80;;;22.30;40.80;;;;;;5071119;28;20187;-72
2023/09/06 01:58:11;;;;;;;11.47;2.20;;;22.30;40.70;;;;;;5069239;28;20198;-67
2023/09/06 02:00:39;;;;;;;8.40;2.07;;;22.40;39.60;;;;;;5071785;28;20641;-70
2023/09/06 02:03:09;;;;;;;6.67;2.00;;;22.20;40.50;;;;;;5069898;28;20202;-71
2023/09/06 02:05:36;;;;;;;9.90;2.30;;;22.30;40.50;;;;;;5072460;28;20254;-73
2023/09/06 02:08:04;;;;;;;5.93;2.10;;;22.40;39.80;;;;;;5070046;28;20183;-68
2023/09/06 02:10:34;;;;;;;10.83;3.13;;;22.30;40.80;;;;;;5068109;28;20191;-70
2023/09/06 02:13:02;;;;;;;10.10;2.50;;;22.30;40.90;;;;;;5071051;28;20199;-70
2023/09/06 02:15:29;;;;;;;6.93;2.57;;;22.10;41.20;;;;;;5070472;28;20195;-69
2023/09/06 02:17:57;;;;;;;7.43;2.77;;;22.30;41.20;;;;;;5071829;28;20575;-70
2023/09/06 02:20:25;;;;;;;8.13;2.70;;;22.70;40.30;;;;;;5071523;28;20219;-70
2023/09/06 02:22:57;;;;;;;8.07;2.97;;;22.70;40.10;;;;;;5072074;28;20225;-70
2023/09/06 02:25:31;;;;;;;6.70;2.83;;;22.80;40.10;;;;;;5072840;28;20215;-67
2023/09/06 02:28:05;;;;;;;9.30;2.77;;;22.90;40.50;;;;;;5075384;28;20193;-68
2023/09/06 02:30:37;;;;;;;6.57;3.00;;;23.00;39.90;;;;;;5074920;28;20184;-67
2023/09/06 02:33:07;;;;;;;7.70;2.80;;;22.80;40.80;;;;;;5074065;28;20202;-66
2023/09/06 02:35:35;;;;;;;7.60;2.50;;;22.70;40.90;;;;;;5074698;28;20183;-70
2023/09/06 02:38:02;;;;;;;8.80;2.80;;;22.40;42.20;;;;;;5068174;28;20186;-67
2023/09/06 02:40:29;;;;;;;8.50;2.20;;;22.50;41.90;;;;;;5073263;28;20634;-66
2023/09/06 02:42:57;;;;;;;7.87;2.60;;;22.50;42.40;;;;;;5074274;28;20262;-73
2023/09/06 02:45:36;;;;;;;9.20;2.60;;;22.80;41.80;;;;;;5070432;28;20712;-67
2023/09/06 02:48:12;;;;;;;9.50;2.60;;;22.80;41.80;;;;;;5068647;28;20726;-69
2023/09/06 02:50:40;;;;;;;5.80;2.30;;;23.00;41.80;;;;;;5070858;28;20205;-67
2023/09/06 02:53:19;;;;;;;10.37;2.50;;;23.20;41.20;;;;;;5073804;28;20183;-70
2023/09/06 02:55:48;;;;;;;9.73;2.37;;;23.00;42.20;;;;;;5072241;28;20194;-69
2023/09/06 02:58:15;;;;;;;7.60;2.13;;;23.00;42.60;;;;;;5074785;28;20187;-69
2023/09/06 03:00:47;;;;;;;7.67;2.03;;;23.40;41.90;;;;;;5072046;28;20262;-67
2023/09/06 03:03:16;;;;;;;6.33;2.07;;;23.40;41.30;;;;;;5070071;28;20618;-66
2023/09/06 03:05:43;;;;;;;9.03;2.33;;;23.00;41.70;;;;;;5073888;28;20693;-67
2023/09/06 03:08:12;;;;;;;7.90;2.10;;;22.80;42.20;;;;;;5074315;28;20217;-66
2023/09/06 03:10:45;;;;;;;8.30;1.70;;;23.00;43.10;;;;;;5072563;28;20538;-66
2023/09/06 03:13:15;;;;;;;5.20;1.90;;;23.10;42.10;;;;;;5073918;28;20176;-66
2023/09/06 03:15:43;;;;;;;7.33;2.50;;;23.80;41.20;;;;;;5070611;28;20187;-66
2023/09/06 03:18:10;;;;;;;4.50;1.97;;;23.20;42.10;;;;;;5075665;28;20190;-65
2023/09/06 03:20:44;;;;;;;7.33;2.37;;;23.10;42.50;;;;;;5072306;28;20190;-66
2023/09/06 03:23:20;;;;;;;5.33;2.90;;;23.20;42.50;;;;;;5073524;28;20251;-67
2023/09/06 03:25:51;;;;;;;10.17;5.67;;;23.50;41.40;;;;;;5070840;28;20553;-67
2023/09/06 03:28:19;;;;;;;7.37;1.87;;;23.50;41.40;;;;;;5071875;28;20645;-65
2023/09/06 03:30:47;;;;;;;6.33;2.00;;;23.80;40.80;;;;;;5074187;28;20184;-67
2023/09/06 03:33:14;;;;;;;10.17;2.20;;;23.70;40.70;;;;;;5074084;28;20183;-65
2023/09/06 03:35:45;;;;;;;5.37;2.07;;;23.90;40.20;;;;;;5070313;28;20195;-68
2023/09/06 03:38:15;;;;;;;5.53;1.80;;;24.00;39.90;;;;;;5072694;28;20645;-69
2023/09/06 03:40:43;;;;;;;4.97;1.80;;;23.80;40.30;;;;;;5073476;28;20235;-67
2023/09/06 03:43:19;;;;;;;6.17;1.60;;;23.80;39.90;;;;;;5073581;28;20699;-71
2023/09/06 03:45:51;;;;;;;8.73;2.07;;;23.80;39.80;;;;;;5069312;28;20226;-69
2023/09/06 03:48:24;;;;;;;6.33;1.53;;;23.50;40.50;;;;;;5073421;28;20522;-65
2023/09/06 03:50:57;;;;;;;6.67;1.63;;;23.60;40.70;;;;;;5073529;28;20275;-66
2023/09/06 03:53:26;;;;;;;5.40;2.10;;;23.70;40.50;;;;;;5071816;28;20826;-66
2023/09/06 03:55:57;;;;;;;5.27;1.93;;;23.50;40.90;;;;;;5070486;28;20274;-67
2023/09/06 03:58:25;;;;;;;9.17;1.93;;;24.00;39.20;;;;;;5071052;28;21069;-69
2023/09/06 04:00:52;;;;;;;7.57;2.00;;;23.90;39.30;;;;;;5073397;28;20186;-67
2023/09/06 04:03:22;;;;;;;7.47;1.83;;;24.20;38.70;;;;;;5073241;28;20662;-66
2023/09/06 04:05:50;;;;;;;5.57;1.50;;;24.70;38.30;;;;;;5069520;28;20719;-71
2023/09/06 04:08:18;;;;;;;7.57;1.77;;;24.60;38.70;;;;;;5073397;28;20194;-68
2023/09/06 04:10:46;;;;;;;8.13;1.67;;;24.60;38.70;;;;;;5074339;28;20194;-68
2023/09/06 04:13:14;;;;;;;4.70;1.57;;;24.60;39.30;;;;;;5073710;28;20199;-68
2023/09/06 04:15:45;;;;;;;8.57;1.60;;;24.30;40.20;;;;;;5070286;28;20236;-65
2023/09/06 04:18:13;;;;;;;7.47;1.67;;;24.80;39.60;;;;;;5073308;28;20296;-65
2023/09/06 04:20:46;;;;;;;5.67;1.60;;;24.80;40.00;;;;;;5072391;28;20175;-65
2023/09/06 04:23:14;;;;;;;8.30;1.70;;;24.90;39.20;;;;;;5070904;28;20262;-65
2023/09/06 04:25:44;;;;;;;5.03;1.50;;;24.30;39.60;;;;;;5072758;28;20229;-66
2023/09/06 04:28:16;;;;;;;7.43;2.20;;;24.60;39.50;;;;;;5071042;28;20235;-74
2023/09/06 04:30:47;;;;;;;9.47;1.90;;;24.60;39.40;;;;;;5072278;28;20218;-73
2023/09/06 04:33:15;;;;;;;5.93;1.60;;;24.30;40.00;;;;;;5074137;28;20183;-73
2023/09/06 04:35:48;;;;;;;6.17;1.80;;;23.90;40.60;;;;;;5072498;28;20245;-75
2023/09/06 04:38:20;;;;;;;6.50;1.43;;;24.20;39.90;;;;;;5073907;28;20190;-74
2023/09/06 04:40:48;;;;;;;5.07;1.40;;;24.10;39.60;;;;;;5073410;28;20262;-74
2023/09/06 04:43:17;;;;;;;7.10;1.70;;;24.30;38.60;;;;;;5074036;28;20186;-74
2023/09/06 04:45:46;;;;;;;5.77;1.27;;;24.20;39.90;;;;;;5071031;28;20293;-74
2023/09/06 04:48:17;;;;;;;6.97;1.47;;;23.80;40.60;;;;;;5072902;28;20187;-73
2023/09/06 04:50:46;;;;;;;5.00;1.70;;;24.00;41.10;;;;;;5072588;28;20198;-71
2023/09/06 04:53:17;;;;;;;6.87;1.63;;;24.10;40.90;;;;;;5073371;28;20214;-76
2023/09/06 04:55:45;;;;;;;5.73;1.97;;;23.80;41.40;;;;;;5072423;28;20183;-77
2023/09/06 04:58:13;;;;;;;10.10;3.37;;;23.80;40.90;;;;;;5071958;28;20187;-74
2023/09/06 05:00:44;;;;;;;6.90;2.40;;;24.00;41.20;;;;;;5072505;28;20175;-76
2023/09/06 05:03:12;;;;;;;5.20;1.60;;;24.10;40.30;;;;;;5068165;28;20188;-75
2023/09/06 05:05:41;;;;;;;5.67;1.47;;;24.00;40.50;;;;;;5072273;28;20272;-76
2023/09/06 05:08:09;;;;;;;5.43;1.73;;;24.00;40.20;;;;;;5072332;28;20215;-70
2023/09/06 05:10:37;;;;;;;6.40;1.60;;;23.70;41.40;;;;;;5071456;28;20249;-76
2023/09/06 05:13:07;;;;;;;5.30;1.50;;;23.60;41.70;;;;;;5070947;28;20197;-72
2023/09/06 05:15:36;;;;;;;7.37;1.83;;;23.50;42.20;;;;;;5067895;28;20179;-72
2023/09/06 05:18:04;;;;;;;4.77;1.67;;;23.40;42.40;;;;;;5071944;28;20183;-77
2023/09/06 05:20:35;;;;;;;8.80;1.60;;;23.50;41.70;;;;;;5069002;28;20694;-77
2023/09/06 05:23:04;;;;;;;3.63;1.40;;;23.70;41.60;;;;;;5071913;28;20210;-76
2023/09/06 05:25:32;;;;;;;3.27;1.50;;;23.80;40.90;;;;;;5070947;28;20211;-73
2023/09/06 05:28:04;;;;;;;13.27;2.50;;;24.00;40.20;;;;;;5071706;28;20233;-72
2023/09/06 05:30:32;;;;;;;9.87;1.23;;;24.20;40.40;;;;;;5071251;28;20179;-75
2023/09/06 05:33:00;;;;;;;4.57;1.30;;;23.60;41.20;;;;;;5071811;28;20182;-71
2023/09/06 05:35:27;;;;;;;8.27;1.70;;;23.40;41.60;;;;;;5071514;28;20183;-70
2023/09/06 05:37:54;;;;;;;9.57;1.63;;;23.50;41.60;;;;;;5071741;28;20176;-68
2023/09/06 05:40:26;;;;;;;5.73;1.77;;;23.30;42.30;;;;;;5069944;28;20219;-74
2023/09/06 05:42:54;;;;;;;4.23;1.30;;;23.60;42.50;;;;;;5071848;28;20198;-75
2023/09/06 05:45:21;;;;;;;5.43;1.60;;;23.20;42.90;;;;;;5070627;28;20719;-74
2023/09/06 05:47:50;;;;;;;7.30;1.53;;;23.30;43.50;;;;;;5070474;28;20314;-73
2023/09/06 05:50:17;;;;;;;4.00;1.30;;;23.50;43.30;;;;;;5069385;28;20186;-69
2023/09/06 05:52:46;;;;;;;4.30;1.90;;;23.70;42.20;;;;;;5068805;28;20179;-69
2023/09/06 05:55:14;;;;;;;5.77;1.50;;;23.50;42.80;;;;;;5064676;28;20274;-73
2023/09/06 05:57:41;;;;;;;5.80;1.67;;;22.90;44.90;;;;;;5069206;28;20171;-74
2023/09/06 06:00:21;;;;;;;4.70;1.33;;;22.60;45.00;;;;;;5067503;28;20578;-71
2023/09/06 06:02:49;;;;;;;4.53;1.10;;;23.00;44.70;;;;;;5067833;28;20209;-69
2023/09/06 06:05:18;;;;;;;4.97;1.47;;;23.40;44.20;;;;;;5070730;28;20649;-70
2023/09/06 06:07:46;;;;;;;6.67;1.50;;;23.10;44.90;;;;;;5067878;28;20179;-67
2023/09/06 06:10:14;;;;;;;7.30;1.77;;;23.20;45.90;;;;;;5071001;28;20189;-72
2023/09/06 06:12:41;;;;;;;11.47;2.30;;;23.40;44.20;;;;;;5071688;28;20207;-72
2023/09/06 06:15:12;;;;;;;6.67;1.33;;;23.20;44.40;;;;;;5070074;28;20570;-67
2023/09/06 06:17:40;;;;;;;5.03;1.50;;;23.20;44.60;;;;;;5070121;28;20163;-67
2023/09/06 06:20:09;;;;;;;10.33;1.93;;;22.90;45.70;;;;;;5069910;28;20182;-66
2023/09/06 06:22:40;;;;;;;7.23;1.70;;;22.60;46.80;;;;;;5070472;28;20187;-71
2023/09/06 06:25:11;;;;;;;15.63;1.57;;;22.60;46.70;;;;;;5071125;28;20204;-68
2023/09/06 06:27:39;;;;;;;4.80;1.93;;;22.50;47.40;;;;;;5068565;28;20190;-75
2023/09/06 06:30:08;;;;;;;8.40;1.93;;;22.80;46.50;;;;;;5070582;28;20176;-68
2023/09/06 06:32:36;;;;;;;5.87;1.77;;;22.80;46.10;;;;;;5067170;28;20236;-74
2023/09/06 06:35:06;;;;;;;4.60;1.30;;;22.30;46.90;;;;;;5070746;28;20648;-78
2023/09/06 06:37:34;;;;;;;6.40;1.43;;;22.40;47.40;;;;;;5070650;28;20179;-76
2023/09/06 06:40:05;;;;;;;8.47;1.90;;;22.00;48.50;;;;;;5071082;28;20231;-70
2023/09/06 06:42:35;;;;;;;5.80;1.70;;;21.80;49.00;;;;;;5070188;28;20233;-72
2023/09/06 06:45:04;;;;;;;9.50;2.40;;;21.50;49.30;;;;;;5071131;28;20276;-72
2023/09/06 06:47:31;;;;;;;4.83;1.87;;;21.70;49.60;;;;;;5085147;28;20263;-68
2023/09/06 06:50:03;;;;;;;6.20;1.50;;;21.70;49.60;;;;;;5070557;28;20180;-74
2023/09/06 06:52:31;;;;;;;6.40;1.90;;;21.60;49.60;;;;;;5070192;28;20306;-74
2023/09/06 06:54:58;;;;;;;7.17;1.63;;;21.30;50.40;;;;;;5065838;28;20248;-73
2023/09/06 06:57:25;;;;;;;6.40;1.63;;;21.10;51.50;;;;;;5069458;28;20188;-74
2023/09/06 06:59:53;;;;;;;8.27;2.10;;;20.90;51.60;;;;;;5071104;28;20183;-76
2023/09/06 07:02:20;;;;;;;9.53;1.73;;;21.10;51.40;;;;;;5070197;28;20171;-77
2023/09/06 07:04:47;;;;;;;7.70;1.90;;;20.80;52.10;;;;;;5070417;28;20665;-68
2023/09/06 07:07:15;;;;;;;8.93;1.77;;;20.50;53.30;;;;;;5071183;28;20179;-75
2023/09/06 07:09:42;;;;;;;6.77;1.60;;;20.30;54.00;;;;;;5070827;28;20180;-67
2023/09/06 07:12:09;;;;;;;7.17;1.27;;;20.30;54.30;;;;;;5070107;28;20214;-76
2023/09/06 07:14:37;;;;;;;7.27;1.80;;;20.00;55.40;;;;;;5074937;28;20262;-69
2023/09/06 07:17:04;;;;;;;7.57;1.60;;;19.30;57.90;;;;;;5073439;28;20183;-71
2023/09/06 07:19:33;;;;;;;7.70;1.80;;;18.80;59.60;;;;;;5072234;28;20195;-68
2023/09/06 07:22:03;;;;;;;6.47;1.70;;;18.80;60.00;;;;;;5069688;28;20238;-73
2023/09/06 07:24:30;;;;;;;4.67;1.43;;;18.60;61.30;;;;;;5070633;28;20689;-74
2023/09/06 07:26:57;;;;;;;4.67;1.93;;;18.30;62.00;;;;;;5073313;28;20214;-70
2023/09/06 07:29:25;;;;;;;6.73;2.07;;;18.30;62.40;;;;;;5072077;28;20325;-70
2023/09/06 07:31:52;;;;;;;7.87;2.00;;;18.20;62.90;;;;;;5070992;28;20236;-71
2023/09/06 07:34:20;;;;;;;6.07;1.90;;;18.10;62.90;;;;;;5072778;28;20179;-74
2023/09/06 07:36:47;;;;;;;5.90;1.90;;;18.10;63.60;;;;;;5070482;28;20667;-74
2023/09/06 07:39:17;;;;;;;8.20;1.83;;;17.90;63.70;;;;;;5069113;28;20183;-70
2023/09/06 07:41:44;;;;;;;8.20;2.10;;;17.90;64.10;;;;;;5078401;28;20269;-74
2023/09/06 07:44:11;;;;;;;13.93;1.87;;;17.80;64.50;;;;;;5070727;28;20175;-68
2023/09/06 07:46:41;;;;;;;8.67;2.00;;;17.80;64.80;;;;;;5068826;28;20213;-74
2023/09/06 07:49:08;;;;;;;9.13;2.10;;;17.70;65.30;;;;;;5072693;28;20709;-68
2023/09/06 07:51:35;;;;;;;8.30;2.00;;;17.70;65.70;;;;;;5073140;28;20184;-71
2023/09/06 07:54:03;;;;;;;11.53;2.27;;;17.70;65.90;;;;;;5072919;28;20175;-71
2023/09/06 07:56:30;;;;;;;8.80;1.70;;;17.70;65.80;;;;;;5071644;28;20584;-67
2023/09/06 07:58:57;;;;;;;6.90;1.70;;;17.60;65.90;;;;;;5067578;28;20224;-67
2023/09/06 08:01:25;;;;;;;11.40;2.20;;;17.60;66.40;;;;;;5070549;28;20175;-70
2023/09/06 08:03:52;;;;;;;6.57;2.10;;;17.50;66.80;;;;;;5072913;28;20182;-66
2023/09/06 08:06:19;;;;;;;8.90;1.90;;;17.50;67.00;;;;;;5072342;28;20210;-66
2023/09/06 08:08:47;;;;;;;6.77;2.03;;;17.50;67.10;;;;;;5071253;28;20228;-65
2023/09/06 08:11:18;;;;;;;11.90;2.37;;;17.50;67.20;;;;;;5068952;28;20528;-65
2023/09/06 08:13:45;;;;;;;6.60;2.10;;;17.50;67.40;;;;;;5064127;28;20175;-65
2023/09/06 08:16:12;;;;;;;6.60;2.73;;;17.40;67.40;;;;;;5068186;28;20190;-64
2023/09/06 08:18:40;;;;;;;9.57;2.43;;;17.40;67.60;;;;;;5060440;28;20773;-66
2023/09/06 08:21:07;;;;;;;7.43;2.30;;;17.40;67.60;;;;;;5073072;28;20193;-66
2023/09/06 08:23:35;;;;;;;7.23;2.17;;;17.40;67.60;;;;;;5071996;28;20262;-65
2023/09/06 08:26:03;;;;;;;9.00;2.33;;;17.40;67.60;;;;;;5072362;28;20242;-64
2023/09/06 08:28:35;;;;;;;6.70;2.10;;;17.40;67.80;;;;;;5065993;28;20192;-66
2023/09/06 08:31:03;;;;;;;11.17;2.40;;;17.40;68.10;;;;;;5067831;28;20203;-67
2023/09/06 08:33:30;;;;;;;8.50;2.37;;;17.30;68.40;;;;;;5068820;28;20179;-65
2023/09/06 08:35:58;;;;;;;9.80;2.30;;;17.30;68.40;;;;;;5071609;28;20692;-65
2023/09/06 08:38:26;;;;;;;9.67;3.00;;;17.30;68.30;;;;;;5072578;28;20183;-66
2023/09/06 08:40:53;;;;;;;9.50;2.77;;;17.30;68.60;;;;;;5072229;28;20232;-65
2023/09/06 08:43:22;;;;;;;10.70;2.23;;;17.30;68.90;;;;;;5072730;28;20178;-67
2023/09/06 08:45:51;;;;;;;5.90;2.13;;;17.30;68.80;;;;;;5071899;28;20218;-66
2023/09/06 08:48:19;;;;;;;11.83;3.07;;;17.30;68.70;;;;;;5072684;28;20183;-64
2023/09/06 08:50:47;;;;;;;9.93;2.50;;;17.30;68.80;;;;;;5070615;28;20241;-66
2023/09/06 08:53:18;;;;;;;10.10;2.33;;;17.30;68.90;;;;;;5068710;28;20273;-64
2023/09/06 08:55:46;;;;;;;7.13;2.23;;;17.30;69.10;;;;;;5068405;28;20240;-66
2023/09/06 08:58:14;;;;;;;9.63;3.00;;;17.30;69.20;;;;;;5069733;28;20186;-72
2023/09/06 09:00:43;;;;;;;10.90;2.77;;;17.20;69.40;;;;;;5072434;28;20669;-69
2023/09/06 09:03:10;;;;;;;10.27;2.70;;;17.20;69.50;;;;;;5072874;28;20203;-71
2023/09/06 09:05:38;;;;;;;9.67;2.47;;;17.20;69.80;;;;;;5072081;28;20280;-68
2023/09/06 09:08:08;;;;;;;13.53;2.47;;;17.20;70.00;;;;;;5076075;28;20236;-73
2023/09/06 09:10:35;;;;;;;14.93;2.23;;;17.20;69.90;;;;;;5069224;28;20226;-66
2023/09/06 09:13:02;;;;;;;13.13;2.07;;;17.20;70.10;;;;;;5072378;28;20665;-73
2023/09/06 09:15:34;;;;;;;9.93;2.20;;;17.20;70.20;;;;;;5071461;28;20190;-68
2023/09/06 09:18:11;;;;;;;10.37;2.30;;;17.20;70.00;;;;;;5075626;28;20205;-69
2023/09/06 09:20:43;;;;;;;10.70;3.27;;;17.20;69.80;;;;;;5070431;28;20713;-72
2023/09/06 09:23:14;;;;;;;9.67;2.27;;;17.20;70.30;;;;;;5068505;28;20556;-69
2023/09/06 09:25:50;;;;;;;10.27;2.17;;;17.20;70.20;;;;;;5069272;28;20222;-67
2023/09/06 09:28:18;;;;;;;7.87;1.97;;;17.20;70.30;;;;;;5067862;28;20289;-67
2023/09/06 09:30:47;;;;;;;10.23;2.30;;;17.20;70.40;;;;;;5067087;28;20191;-72
2023/09/06 09:35:50;;;;;;;9.63;2.27;;;17.10;70.70;;;;;;5064379;23;20238;-72
2023/09/06 09:38:18;;;;;;;15.20;1.97;;;17.10;70.80;;;;;;4935274;29;20187;-71
2023/09/06 09:40:45;;;;;;;12.53;2.03;;;17.10;70.80;;;;;;4931413;29;20609;-71
2023/09/06 09:43:13;;;;;;;8.83;2.10;;;17.10;71.00;;;;;;4930630;29;20192;-70
2023/09/06 09:45:45;;;;;;;12.70;2.20;;;17.00;71.20;;;;;;4932000;29;20230;-73
2023/09/06 09:48:13;;;;;;;10.87;2.77;;;17.00;71.40;;;;;;4934326;29;20278;-71
2023/09/06 09:50:42;;;;;;;15.80;3.43;;;17.00;71.50;;;;;;4933146;29;20275;-71
2023/09/06 09:53:10;;;;;;;13.27;2.40;;;17.00;71.60;;;;;;4933092;29;20194;-72
2023/09/06 09:55:43;;;;;;;21.17;6.63;;;17.10;71.30;;;;;;4949788;28;20278;-72
2023/09/06 09:58:11;;;;;;;8.73;2.10;;;17.10;71.50;;;;;;4936782;29;20206;-72
2023/09/06 10:00:41;;;;;;;8.27;2.40;;;17.10;71.80;;;;;;4934922;29;20194;-72
2023/09/06 10:03:10;;;;;;;13.47;2.17;;;17.00;71.90;;;;;;4932185;29;20708;-71
2023/09/06 10:05:38;;;;;;;12.03;2.57;;;17.00;72.00;;;;;;4933197;29;20212;-72
2023/09/06 10:08:09;;;;;;;11.90;2.30;;;17.00;71.70;;;;;;4933604;29;20684;-70
2023/09/06 10:10:40;;;;;;;10.67;2.07;;;17.10;71.10;;;;;;4929685;29;20195;-72
2023/09/06 10:13:08;;;;;;;13.93;2.40;;;17.20;71.00;;;;;;4933891;29;20279;-71
2023/09/06 10:15:37;;;;;;;15.43;3.73;;;17.10;71.50;;;;;;4929939;29;20193;-72
2023/09/06 10:18:06;;;;;;;12.40;4.70;;;17.10;71.20;;;;;;4932829;29;20270;-71
2023/09/06 10:20:34;;;;;;;13.93;3.83;;;17.10;71.00;;;;;;4929530;29;20187;-72
2023/09/06 10:23:04;;;;;;;21.90;2.83;;;17.10;71.20;;;;;;4933854;29;20183;-72
2023/09/06 10:25:32;;;;;;;12.87;2.63;;;17.10;71.00;;;;;;4930856;29;20873;-71
2023/09/06 10:27:59;;;;;;;8.03;2.13;;;17.00;71.20;;;;;;4934100;29;20182;-73
2023/09/06 10:30:44;;;;;;;12.57;2.43;;;17.00;70.90;;;;;;4934257;29;20196;-73
2023/09/06 10:33:32;;;;;;;15.63;2.80;;;17.00;70.80;;;;;;4933407;29;20198;-72
2023/09/06 10:36:05;;;;;;;15.47;2.60;;;17.00;71.00;;;;;;4928061;29;20247;-72
2023/09/06 10:38:35;;;;;;;8.70;2.20;;;16.90;71.10;;;;;;4931309;29;20184;-72
2023/09/06 10:41:10;;;;;;;14.37;2.50;;;16.90;71.40;;;;;;4931865;29;20199;-72
2023/09/06 10:44:03;;;;;;;9.23;2.13;;;16.90;71.60;;;;;;4931742;29;20581;-73
2023/09/06 10:46:35;;;;;;;11.90;2.27;;;16.90;71.70;;;;;;4936048;29;20720;-72
2023/09/06 10:49:25;;;;;;;10.50;1.90;;;16.90;71.90;;;;;;4937668;29;20187;-70
2023/09/06 10:52:09;;;;;;;14.20;2.40;;;16.90;71.90;;;;;;4936152;29;20198;-72
2023/09/06 10:54:44;;;;;;;8.53;2.30;;;17.00;71.90;;;;;;4935828;29;20548;-72
2023/09/06 10:57:15;;;;;;;11.43;2.57;;;16.90;71.90;;;;;;4933759;29;20654;-73
2023/09/06 10:59:59;;;;;;;13.93;2.90;;;16.90;72.60;;;;;;4937571;29;20191;-72
2023/09/06 11:02:27;;;;;;;10.13;2.33;;;16.90;72.80;;;;;;4935932;29;20187;-73
2023/09/06 11:05:09;;;;;;;12.07;3.10;;;16.90;72.90;;;;;;4933080;29;20270;-71
2023/09/06 11:07:45;;;;;;;17.90;2.77;;;16.90;72.90;;;;;;4936626;29;20191;-71
2023/09/06 11:10:12;;;;;;;8.00;2.07;;;16.90;72.90;;;;;;4936778;29;20723;-73
2023/09/06 11:12:40;;;;;;;13.97;2.63;;;16.90;72.90;;;;;;4933224;29;20681;-73
2023/09/06 11:15:09;;;;;;;9.87;2.40;;;16.90;72.70;;;;;;4934405;29;20183;-72
2023/09/06 11:17:37;;;;;;;16.07;2.87;;;16.90;72.90;;;;;;4932857;29;20199;-71
2023/09/06 11:20:16;;;;;;;14.37;1.93;;;16.80;72.90;;;;;;4934966;29;20180;-72
2023/09/06 11:22:58;;;;;;;11.57;2.27;;;16.80;72.80;;;;;;4936370;29;20187;-72
2023/09/06 11:25:27;;;;;;;8.87;2.20;;;16.80;72.80;;;;;;4930431;29;20224;-71
2023/09/06 11:27:59;;;;;;;11.80;2.87;;;16.80;73.00;;;;;;4936764;29;20229;-73
2023/09/06 11:30:32;;;;;;;14.27;2.87;;;16.80;72.70;;;;;;4936993;29;20279;-72
2023/09/06 11:32:59;;;;;;;15.00;2.53;;;16.80;72.70;;;;;;4935114;29;20192;-71
2023/09/06 11:35:33;;;;;;;13.03;2.87;;;16.80;72.90;;;;;;4934587;29;20286;-73
2023/09/06 11:38:02;;;;;;;15.00;2.80;;;16.80;72.60;;;;;;4936705;29;20199;-72
2023/09/06 11:40:33;;;;;;;13.80;2.93;;;16.80;72.60;;;;;;4937145;29;20184;-73
2023/09/06 11:43:08;;;;;;;14.73;2.97;;;16.80;72.60;;;;;;4933414;29;20195;-72
2023/09/06 11:45:35;;;;;;;12.53;2.90;;;16.70;72.50;;;;;;4936990;29;20266;-71
2023/09/06 11:48:09;;;;;;;13.40;3.00;;;16.70;72.60;;;;;;4934579;29;20195;-71
2023/09/06 11:50:40;;;;;;;12.97;2.57;;;16.70;72.70;;;;;;4935000;29;20187;-73
2023/09/06 11:53:09;;;;;;;8.83;2.50;;;16.60;73.00;;;;;;4929548;29;20216;-72
2023/09/06 11:55:45;;;;;;;12.67;2.87;;;16.60;73.00;;;;;;4936681;29;20201;-73
2023/09/06 11:58:21;;;;;;;11.50;2.03;;;16.60;73.00;;;;;;4935436;29;20190;-72
2023/09/06 12:00:50;;;;;;;11.43;2.60;;;16.60;73.20;;;;;;4933229;29;20199;-72
2023/09/06 12:03:21;;;;;;;10.33;2.33;;;16.50;73.40;;;;;;4934121;29;20192;-73
2023/09/06 12:05:54;;;;;;;16.80;2.67;;;16.50;73.50;;;;;;4935565;29;20303;-72
2023/09/06 12:08:23;;;;;;;10.87;2.20;;;16.50;73.60;;;;;;4930636;29;20557;-72
2023/09/06 12:11:06;;;;;;;15.07;2.40;;;16.50;73.30;;;;;;4936829;29;20222;-72
2023/09/06 12:13:38;;;;;;;12.13;2.27;;;16.40;73.50;;;;;;4938056;29;20192;-71
2023/09/06 12:16:15;;;;;;;13.30;2.83;;;16.50;73.10;;;;;;4937125;29;20229;-73
2023/09/06 12:18:42;;;;;;;18.53;2.73;;;16.40;73.10;;;;;;4937300;29;20198;-71
2023/09/06 12:21:10;;;;;;;12.63;3.07;;;16.40;73.00;;;;;;4938880;29;20263;-71
2023/09/06 12:23:38;;;;;;;14.63;2.67;;;16.40;73.30;;;;;;4938362;29;20187;-72
2023/09/06 12:26:05;;;;;;;14.23;3.53;;;16.30;73.20;;;;;;4937041;29;20351;-73
2023/09/06 12:28:33;;;;;;;13.67;2.57;;;16.30;73.10;;;;;;4937134;29;20210;-73
2023/09/06 12:31:04;;;;;;;11.57;2.33;;;16.40;73.00;;;;;;4935306;29;20187;-72
2023/09/06 12:33:32;;;;;;;9.93;2.60;;;16.30;72.90;;;;;;4935656;29;20657;-72
2023/09/06 12:35:59;;;;;;;14.43;2.47;;;16.30;73.00;;;;;;4932189;29;20768;-73
2023/09/06 12:38:27;;;;;;;8.17;2.30;;;16.30;73.20;;;;;;4936312;29;20282;-73
2023/09/06 12:40:56;;;;;;;15.07;2.97;;;16.30;73.10;;;;;;4936348;29;20186;-72
2023/09/06 12:43:26;;;;;;;13.63;2.30;;;16.20;73.30;;;;;;4934911;29;20191;-72
2023/09/06 12:45:54;;;;;;;18.23;3.00;;;16.10;73.70;;;;;;4935980;29;20689;-72
2023/09/06 12:48:23;;;;;;;15.63;3.20;;;16.00;74.10;;;;;;4934648;29;20279;-72
2023/09/06 12:50:50;;;;;;;16.20;3.10;;;16.00;74.40;;;;;;4935672;29;20778;-73
2023/09/06 12:53:18;;;;;;;16.03;2.20;;;15.80;74.60;;;;;;4933673;29;20179;-72
2023/09/06 12:55:48;;;;;;;13.83;2.73;;;15.80;74.90;;;;;;4934559;29;20263;-72
2023/09/06 12:58:15;;;;;;;11.60;2.57;;;15.70;75.10;;;;;;4931164;29;20188;-73